地図

経路データ

SID SEASON NUMBER BASIN SUBBASIN NAME ISO_TIME NATURE LAT LON WMO_WIND WMO_PRES WMO_AGENCY TRACK_TYPE DIST2LAND LANDFALL IFLAG USA_AGENCY USA_ATCF_ID USA_LAT USA_LON USA_RECORD USA_STATUS USA_WIND USA_PRES USA_SSHS USA_R34_NE USA_R34_SE USA_R34_SW USA_R34_NW USA_R50_NE USA_R50_SE USA_R50_SW USA_R50_NW USA_R64_NE USA_R64_SE USA_R64_SW USA_R64_NW USA_POCI USA_ROCI USA_RMW USA_EYE TOKYO_LAT TOKYO_LON TOKYO_GRADE TOKYO_WIND TOKYO_PRES TOKYO_R50_DIR TOKYO_R50_LONG TOKYO_R50_SHORT TOKYO_R30_DIR TOKYO_R30_LONG TOKYO_R30_SHORT TOKYO_LAND CMA_LAT CMA_LON CMA_CAT CMA_WIND CMA_PRES HKO_LAT HKO_LON HKO_CAT HKO_WIND HKO_PRES NEWDELHI_LAT NEWDELHI_LON NEWDELHI_GRADE NEWDELHI_WIND NEWDELHI_PRES NEWDELHI_CI NEWDELHI_DP NEWDELHI_POCI REUNION_LAT REUNION_LON REUNION_TYPE REUNION_WIND REUNION_PRES REUNION_TNUM REUNION_CI REUNION_RMW REUNION_R34_NE REUNION_R34_SE REUNION_R34_SW REUNION_R34_NW REUNION_R50_NE REUNION_R50_SE REUNION_R50_SW REUNION_R50_NW REUNION_R64_NE REUNION_R64_SE REUNION_R64_SW REUNION_R64_NW BOM_LAT BOM_LON BOM_TYPE BOM_WIND BOM_PRES BOM_TNUM BOM_CI BOM_RMW BOM_R34_NE BOM_R34_SE BOM_R34_SW BOM_R34_NW BOM_R50_NE BOM_R50_SE BOM_R50_SW BOM_R50_NW BOM_R64_NE BOM_R64_SE BOM_R64_SW BOM_R64_NW BOM_ROCI BOM_POCI BOM_EYE BOM_POS_METHOD BOM_PRES_METHOD NADI_LAT NADI_LON NADI_CAT NADI_WIND NADI_PRES WELLINGTON_LAT WELLINGTON_LON WELLINGTON_WIND WELLINGTON_PRES DS824_LAT DS824_LON DS824_STAGE DS824_WIND DS824_PRES TD9636_LAT TD9636_LON TD9636_STAGE TD9636_WIND TD9636_PRES TD9635_LAT TD9635_LON TD9635_WIND TD9635_PRES TD9635_ROCI NEUMANN_LAT NEUMANN_LON NEUMANN_CLASS NEUMANN_WIND NEUMANN_PRES MLC_LAT MLC_LON MLC_CLASS MLC_WIND MLC_PRES USA_GUST BOM_GUST BOM_GUST_PER REUNION_GUST REUNION_GUST_PER USA_SEAHGT USA_SEARAD_NE USA_SEARAD_SE USA_SEARAD_SW USA_SEARAD_NW STORM_SPEED STORM_DIR
1912043S12067 1912 6 SI MM NOT_NAMED 1912-02-12 00:00:00 TS -11.7000 67.3000 main 1391 1367 _________O____ -1 -11.7000 67.3000 TC 25 5 241
1912043S12067 1912 6 SI MM NOT_NAMED 1912-02-12 03:00:00 TS -11.8075 67.0975 main 1367 1344 _________P____ -1 -11.8075 67.0975 TC 25 4 243
1912043S12067 1912 6 SI MM NOT_NAMED 1912-02-12 06:00:00 TS -11.9000 66.9000 main 1344 1321 _________O____ -1 -11.9000 66.9000 TC 25 4 248
1912043S12067 1912 6 SI MM NOT_NAMED 1912-02-12 09:00:00 TS -11.9650 66.7075 main 1321 1305 _________P____ -1 -11.9650 66.7075 TC 25 4 256
1912043S12067 1912 6 SI MM NOT_NAMED 1912-02-12 12:00:00 TS -12.0000 66.5000 main 1305 1290 _________O____ -1 -12.0000 66.5000 TC 25 4 266
1912043S12067 1912 6 SI MM NOT_NAMED 1912-02-12 15:00:00 TS -12.0000 66.2500 main 1282 1267 _________P____ -1 -12.0000 66.2500 TC 25 5 270
1912043S12067 1912 6 SI MM NOT_NAMED 1912-02-12 18:00:00 TS -12.0000 66.0000 main 1267 1252 _________O____ -1 -12.0000 66.0000 TC 25 4 265
1912043S12067 1912 6 SI MM NOT_NAMED 1912-02-12 21:00:00 TS -12.0349 65.8150 main 1252 1230 _________P____ -1 -12.0349 65.8150 TC 25 4 256
1912043S12067 1912 6 SI MM NOT_NAMED 1912-02-13 00:00:00 TS -12.1000 65.6000 main 1230 1199 _________O____ -1 -12.1000 65.6000 TC 25 6 254
1912043S12067 1912 6 SI MM NOT_NAMED 1912-02-13 03:00:00 TS -12.1850 65.2725 main 1199 1162 _________P____ -1 -12.1850 65.2725 TC 25 7 254
1912043S12067 1912 6 SI MM NOT_NAMED 1912-02-13 06:00:00 TS -12.3000 64.9000 main 1162 1133 _________O____ -1 -12.3000 64.9000 TC 25 8 249
1912043S12067 1912 6 SI MM NOT_NAMED 1912-02-13 09:00:00 TS -12.4500 64.5500 main 1133 1088 _________P____ -1 -12.4500 64.5500 TC 25 7 246
1912043S12067 1912 6 SI MM NOT_NAMED 1912-02-13 12:00:00 TS -12.6000 64.2000 main 1088 1059 _________O____ -1 -12.6000 64.2000 TC 25 7 249
1912043S12067 1912 6 SI MM NOT_NAMED 1912-02-13 15:00:00 TS -12.7075 63.8499 main 1052 1024 _________P____ -1 -12.7075 63.8499 TC 25 7 254
1912043S12067 1912 6 SI MM NOT_NAMED 1912-02-13 18:00:00 TS -12.8000 63.5000 main 1024 996 _________O____ -1 -12.8000 63.5000 TC 25 7 255
1912043S12067 1912 6 SI MM NOT_NAMED 1912-02-13 21:00:00 TS -12.8924 63.1649 main 996 962 _________P____ -1 -12.8924 63.1649 TC 25 7 254
1912043S12067 1912 6 SI MM NOT_NAMED 1912-02-14 00:00:00 TS -13.0000 62.8000 main 962 929 _________O____ -1 -13.0000 62.8000 TC 25 8 253
1912043S12067 1912 6 SI MM NOT_NAMED 1912-02-14 03:00:00 TS -13.1350 62.3575 main 929 882 _________P____ -1 -13.1350 62.3575 TC 25 9 251
1912043S12067 1912 6 SI MM NOT_NAMED 1912-02-14 06:00:00 TS -13.3000 61.9000 main 882 842 _________O____ -1 -13.3000 61.9000 TC 25 9 246
1912043S12067 1912 6 SI MM NOT_NAMED 1912-02-14 09:00:00 TS -13.4999 61.5000 main 842 802 _________P____ -1 -13.4999 61.5000 TC 25 9 243
1912043S12067 1912 6 SI MM NOT_NAMED 1912-02-14 12:00:00 TS -13.7000 61.1000 main 802 773 _________O____ -1 -13.7000 61.1000 TC 25 9 246
1912043S12067 1912 6 SI MM NOT_NAMED 1912-02-14 15:00:00 TS -13.8575 60.6574 main 763 732 _________P____ -1 -13.8575 60.6574 TC 25 9 251
1912043S12067 1912 6 SI MM NOT_NAMED 1912-02-14 18:00:00 TS -14.0000 60.2000 main 732 707 _________O____ -1 -14.0000 60.2000 TC 25 9 252
1912043S12067 1912 6 SI MM NOT_NAMED 1912-02-14 21:00:00 TS -14.1500 59.7350 main 704 670 _________P____ -1 -14.1500 59.7350 TC 25 9 251
1912043S12067 1912 6 SI MM NOT_NAMED 1912-02-15 00:00:00 TS -14.3000 59.3000 main 670 650 _________O____ -1 -14.3000 59.3000 TC 25 8 250
1912043S12067 1912 6 SI MM NOT_NAMED 1912-02-15 03:00:00 TS -14.4424 58.9274 main 650 622 _________P____ -1 -14.4424 58.9274 TC 25 7 246
1912043S12067 1912 6 SI MM NOT_NAMED 1912-02-15 06:00:00 TS -14.6000 58.6000 main 622 596 _________O____ -1 -14.6000 58.6000 TC 25 7 240
1912043S12067 1912 6 SI MM NOT_NAMED 1912-02-15 09:00:00 TS -14.7924 58.2999 main 596 571 _________P____ -1 -14.7924 58.2999 TC 25 7 235
1912043S12067 1912 6 SI MM NOT_NAMED 1912-02-15 12:00:00 TS -15.0000 58.0000 main 571 548 _________O____ -1 -15.0000 58.0000 TC 25 8 237
1912043S12067 1912 6 SI MM NOT_NAMED 1912-02-15 15:00:00 TS -15.2000 57.6500 main 548 526 _________P____ -1 -15.2000 57.6500 TC 25 8 239
1912043S12067 1912 6 SI MM NOT_NAMED 1912-02-15 18:00:00 TS -15.4000 57.3000 main 526 505 _________O____ -1 -15.4000 57.3000 TC 25 7 238
1912043S12067 1912 6 SI MM NOT_NAMED 1912-02-15 21:00:00 TS -15.5848 57.0148 main 506 486 _________P____ -1 -15.5848 57.0148 TC 25 7 235
1912043S12067 1912 6 SI MM NOT_NAMED 1912-02-16 00:00:00 TS -15.8000 56.7000 main 488 465 _________O____ -1 -15.8000 56.7000 TC 25 9 236
1912043S12067 1912 6 SI MM NOT_NAMED 1912-02-16 03:00:00 TS -16.0776 56.2650 main 465 447 _________P____ -1 -16.0776 56.2650 TC 25 11 235
1912043S12067 1912 6 SI MM NOT_NAMED 1912-02-16 06:00:00 TS -16.4000 55.8000 main 451 434 _________O____ -1 -16.4000 55.8000 TC 25 11 232
1912043S12067 1912 6 SI MM NOT_NAMED 1912-02-16 09:00:00 TS -16.7274 55.3848 main 440 426 _________P____ -1 -16.7274 55.3848 TC 25 10 228
1912043S12067 1912 6 SI MM NOT_NAMED 1912-02-16 12:00:00 TS -17.1000 55.0000 main 426 396 _________O____ -1 -17.1000 55.0000 TC 25 11 223
1912043S12067 1912 6 SI MM NOT_NAMED 1912-02-16 15:00:00 TS -17.5200 54.6125 main 398 351 _________P____ -1 -17.5200 54.6125 TC 25 11 217
1912043S12067 1912 6 SI MM NOT_NAMED 1912-02-16 18:00:00 TS -18.0000 54.3000 main 351 306 _________O____ -1 -18.0000 54.3000 TC 25 11 206
1912043S12067 1912 6 SI MM NOT_NAMED 1912-02-16 21:00:00 TS -18.5349 54.0974 main 306 252 _________P____ -1 -18.5349 54.0974 TC 25 11 195
1912043S12067 1912 6 SI MM NOT_NAMED 1912-02-17 00:00:00 TS -19.1000 54.0000 main 252 207 _________O____ -1 -19.1000 54.0000 TC 25 11 186
1912043S12067 1912 6 SI MM NOT_NAMED 1912-02-17 03:00:00 TS -19.6500 53.9624 main 207 160 _________P____ -1 -19.6500 53.9624 TC 25 11 180
1912043S12067 1912 6 SI MM NOT_NAMED 1912-02-17 06:00:00 TS -20.2000 54.0000 main 160 122 _________O____ -1 -20.2000 54.0000 TC 25 11 175
1912043S12067 1912 6 SI MM NOT_NAMED 1912-02-17 09:00:00 TS -20.7650 54.0775 main 119 103 _________P____ -1 -20.7650 54.0775 TC 25 11 170
1912043S12067 1912 6 SI MM NOT_NAMED 1912-02-17 12:00:00 TS -21.3000 54.2000 main 106 103 _________O____ -1 -21.3000 54.2000 TC 25 10 167
1912043S12067 1912 6 SI MM NOT_NAMED 1912-02-17 15:00:00 TS -21.7725 54.3351 main 117 108 _________P____ -1 -21.7725 54.3351 TC 25 9 163
1912043S12067 1912 6 SI MM NOT_NAMED 1912-02-17 18:00:00 TS -22.2000 54.5000 main 130 130 _________O____ -1 -22.2000 54.5000 TC 25 9 158
1912043S12067 1912 6 SI MM NOT_NAMED 1912-02-17 21:00:00 TS -22.5925 54.6852 main 157 157 _________P____ -1 -22.5925 54.6852 TC 25 9 155
1912043S12067 1912 6 SI MM NOT_NAMED 1912-02-18 00:00:00 TS -23.0000 54.9000 main 192 192 _________O____ -1 -23.0000 54.9000 TC 25 10 155
1912043S12067 1912 6 SI MM NOT_NAMED 1912-02-18 03:00:00 TS -23.4850 55.1351 main 240 238 _________P____ -1 -23.4850 55.1351 TC 25 11 155
1912043S12067 1912 6 SI MM NOT_NAMED 1912-02-18 06:00:00 TS -24.0000 55.4000 main 291 291 _________O____ -1 -24.0000 55.4000 TC 25 12 154
1912043S12067 1912 6 SI MM NOT_NAMED 1912-02-18 09:00:00 TS -24.5376 55.7073 main 346 346 _________P____ -1 -24.5376 55.7073 TC 25 11 151
1912043S12067 1912 6 SI MM NOT_NAMED 1912-02-18 12:00:00 TS -25.0000 56.0000 main 404 404 _________O____ -1 -25.0000 56.0000 TC 25 9 148
1912043S12067 1912 6 SI MM NOT_NAMED 1912-02-18 15:00:00 TS -25.2874 56.2154 main 440 440 _________P____ -1 -25.2874 56.2154 TC 25 6 144
1912043S12067 1912 6 SI MM NOT_NAMED 1912-02-18 18:00:00 TS -25.5000 56.4000 main 465 465 _________O____ -1 -25.5000 56.4000 TC 25 6 143
1912043S12067 1912 6 SI MM NOT_NAMED 1912-02-18 21:00:00 TS -25.7376 56.5947 main 491 491 _________P____ -1 -25.7376 56.5947 TC 25 6 144
1912043S12067 1912 6 SI MM NOT_NAMED 1912-02-19 00:00:00 TS -26.0000 56.8000 main 528 _________O____ -1 -26.0000 56.8000 TC 25 6 145

IBTrACS Databaseについて

本データベースは、米国NOAAが公開する1842年以降の世界の熱帯低気圧のベストトラックデータアーカイブInternational Best Track Archive for Climate Stewardship (IBTrACS)を、ウェブで閲覧しやすい形式に変換したものです。

最終更新日:2021-10-08